createdAt,value
2022-08-26T00:00:05.000Z,32.73
2022-08-26T00:00:15.000Z,31.3
2022-08-26T00:02:29.000Z,38.2
2022-08-26T00:04:53.000Z,39.3
2022-08-26T00:07:20.000Z,34.05
2022-08-26T00:09:47.000Z,37.48
2022-08-26T00:12:14.000Z,37.13
2022-08-26T00:14:36.000Z,37.13
2022-08-26T00:14:43.000Z,34.13
2022-08-26T00:17:06.000Z,36.13
2022-08-26T00:19:31.000Z,36.63
2022-08-26T00:21:54.000Z,35.03
2022-08-26T00:24:20.000Z,34.13
2022-08-26T00:26:48.000Z,35.83
2022-08-26T00:29:12.000Z,35.37
2022-08-26T00:31:37.000Z,33.3
2022-08-26T00:34:03.000Z,36.57
2022-08-26T00:36:29.000Z,31.73
2022-08-26T00:38:55.000Z,38
2022-08-26T00:41:23.000Z,34.23
2022-08-26T00:43:47.000Z,37.33
2022-08-26T00:46:13.000Z,35.3
2022-08-26T00:48:41.000Z,34.23
2022-08-26T00:51:05.000Z,34.13
2022-08-26T00:53:34.000Z,30.47
2022-08-26T00:55:58.000Z,35.15
2022-08-26T00:58:24.000Z,37.87
2022-08-26T01:00:54.000Z,35.8
2022-08-26T01:03:16.000Z,35.45
2022-08-26T01:05:47.000Z,33.1
2022-08-26T01:08:10.000Z,33.1
2022-08-26T01:08:18.000Z,33.03
2022-08-26T01:10:34.000Z,35.4
2022-08-26T01:13:02.000Z,32.05
2022-08-26T01:15:27.000Z,35.35
2022-08-26T01:20:19.000Z,39.6
2022-08-26T01:22:44.000Z,36.73
2022-08-26T01:25:11.000Z,39.8
2022-08-26T01:27:36.000Z,36.4
2022-08-26T01:30:03.000Z,36.4
2022-08-26T01:30:12.000Z,39.7
2022-08-26T01:32:28.000Z,39.65
2022-08-26T01:34:54.000Z,42.88
2022-08-26T01:37:21.000Z,38.38
2022-08-26T01:39:47.000Z,38.28
2022-08-26T01:42:11.000Z,42.93
2022-08-26T01:44:38.000Z,42.62
2022-08-26T01:47:04.000Z,43.17
2022-08-26T01:49:30.000Z,39.03
2022-08-26T01:51:56.000Z,39.87
2022-08-26T01:54:22.000Z,37.58
2022-08-26T01:56:48.000Z,40.2
2022-08-26T01:59:14.000Z,47.83
2022-08-26T02:01:42.000Z,44.25
2022-08-26T02:04:05.000Z,43.33
2022-08-26T02:06:32.000Z,43.83
2022-08-26T02:08:57.000Z,43.1
2022-08-26T02:11:23.000Z,44.3
2022-08-26T02:13:49.000Z,44.3
2022-08-26T02:13:57.000Z,43.63
2022-08-26T02:16:15.000Z,43.95
2022-08-26T02:18:41.000Z,39.83
2022-08-26T02:21:09.000Z,47
2022-08-26T02:23:33.000Z,42.23
2022-08-26T02:26:04.000Z,43.6
2022-08-26T02:28:23.000Z,43.6
2022-08-26T02:28:33.000Z,46.98
2022-08-26T02:30:50.000Z,44.5
2022-08-26T02:33:17.000Z,47.83
2022-08-26T02:35:42.000Z,49.63
2022-08-26T02:38:07.000Z,43.85
2022-08-26T02:40:36.000Z,46.65
2022-08-26T02:43:02.000Z,42.62
2022-08-26T02:45:26.000Z,42.62
2022-08-26T02:45:36.000Z,46.65
2022-08-26T02:47:53.000Z,44.38
2022-08-26T02:50:19.000Z,43.8
2022-08-26T02:52:44.000Z,44.27
2022-08-26T02:55:11.000Z,41.2
2022-08-26T02:57:38.000Z,40.57
2022-08-26T03:00:04.000Z,44.25
2022-08-26T03:04:54.000Z,42.98
2022-08-26T03:07:20.000Z,42.98
2022-08-26T03:07:28.000Z,45.95
2022-08-26T03:09:46.000Z,44.18
2022-08-26T03:12:12.000Z,44.18
2022-08-26T03:12:20.000Z,46.88
2022-08-26T03:15:33.000Z,40
2022-08-26T03:17:32.000Z,43.73
2022-08-26T03:19:30.000Z,41.05
2022-08-26T03:21:56.000Z,41.05
2022-08-26T03:22:03.000Z,45.45
2022-08-26T03:24:22.000Z,47.6
2022-08-26T03:26:49.000Z,47.03
2022-08-26T03:29:21.000Z,51.1
2022-08-26T03:31:46.000Z,51.1
2022-08-26T03:31:53.000Z,46.55
2022-08-26T03:34:13.000Z,46.68
2022-08-26T03:36:39.000Z,46.68
2022-08-26T03:39:05.000Z,46.68
2022-08-26T03:39:12.000Z,46.28
2022-08-26T03:39:20.000Z,49.58
2022-08-26T03:41:31.000Z,48.78
2022-08-26T03:43:56.000Z,50.53
2022-08-26T03:46:28.000Z,50.53
2022-08-26T03:46:37.000Z,49.97
2022-08-26T03:48:48.000Z,56.53
2022-08-26T03:51:16.000Z,54.23
2022-08-26T03:53:40.000Z,48.83
2022-08-26T03:56:10.000Z,59.33
2022-08-26T03:58:34.000Z,54.88
2022-08-26T04:06:41.000Z,51.55
2022-08-26T04:09:04.000Z,47.53
2022-08-26T04:11:34.000Z,52.3
2022-08-26T04:13:56.000Z,50.78
2022-08-26T04:16:22.000Z,44.7
2022-08-26T04:18:48.000Z,49.43
2022-08-26T04:21:14.000Z,40.93
2022-08-26T04:23:40.000Z,40.4
2022-08-26T04:26:05.000Z,40.4
2022-08-26T04:26:13.000Z,41.37
2022-08-26T04:28:34.000Z,45.67
2022-08-26T04:31:10.000Z,38.23
2022-08-26T04:33:24.000Z,36.87
2022-08-26T04:35:50.000Z,36.87
2022-08-26T04:35:59.000Z,35.43
2022-08-26T04:38:17.000Z,35.58
2022-08-26T04:40:46.000Z,31.87
2022-08-26T04:43:12.000Z,34.27
2022-08-26T04:45:43.000Z,36.97
2022-08-26T04:48:04.000Z,36.58
2022-08-26T04:50:36.000Z,36.58
2022-08-26T04:50:46.000Z,35.88
2022-08-26T04:52:59.000Z,35.88
2022-08-26T04:53:08.000Z,39.67
2022-08-26T04:55:21.000Z,37.8
2022-08-26T04:57:45.000Z,37.8
2022-08-26T04:57:53.000Z,39.6
2022-08-26T05:00:30.000Z,43.73
2022-08-26T05:02:46.000Z,36.63
2022-08-26T05:05:05.000Z,36.63
2022-08-26T05:05:12.000Z,44.87
2022-08-26T05:07:30.000Z,39.78
2022-08-26T05:09:56.000Z,40.8
2022-08-26T05:12:22.000Z,39.08
2022-08-26T05:14:49.000Z,40.17
2022-08-26T05:17:15.000Z,48.98
2022-08-26T05:19:40.000Z,39.78
2022-08-26T05:22:07.000Z,39.78
2022-08-26T05:22:15.000Z,41
2022-08-26T05:24:33.000Z,41.63
2022-08-26T05:26:59.000Z,38.73
2022-08-26T05:29:24.000Z,38.73
2022-08-26T05:29:31.000Z,42.25
2022-08-26T05:31:50.000Z,41.53
2022-08-26T05:34:16.000Z,48.77
2022-08-26T05:36:42.000Z,48.77
2022-08-26T05:36:49.000Z,46.87
2022-08-26T05:39:11.000Z,44.65
2022-08-26T05:41:34.000Z,41.87
2022-08-26T05:44:02.000Z,41.87
2022-08-26T05:44:09.000Z,38.2
2022-08-26T05:46:28.000Z,43.68
2022-08-26T05:48:52.000Z,43.45
2022-08-26T05:51:18.000Z,42.03
2022-08-26T05:53:44.000Z,42.03
2022-08-26T05:56:11.000Z,42.03
2022-08-26T05:56:18.000Z,45.23
2022-08-26T05:56:26.000Z,46.92
2022-08-26T05:58:36.000Z,48.52
2022-08-26T06:01:14.000Z,48.52
2022-08-26T06:01:23.000Z,47.95
2022-08-26T06:03:27.000Z,43.15
2022-08-26T06:05:52.000Z,45.6
2022-08-26T06:08:18.000Z,46.6
2022-08-26T06:10:45.000Z,47.25
2022-08-26T06:13:10.000Z,45.78
2022-08-26T06:15:42.000Z,48.53
2022-08-26T06:18:07.000Z,47.43
2022-08-26T06:20:32.000Z,47.47
2022-08-26T06:22:58.000Z,44.83
2022-08-26T06:25:23.000Z,46.37
2022-08-26T06:27:49.000Z,44
2022-08-26T06:30:25.000Z,42.67
2022-08-26T06:32:40.000Z,41.77
2022-08-26T06:37:34.000Z,37.15
2022-08-26T06:40:01.000Z,40.05
2022-08-26T06:42:26.000Z,40.05
2022-08-26T06:42:33.000Z,45.23
2022-08-26T06:44:54.000Z,41.05
2022-08-26T06:47:19.000Z,39.63
2022-08-26T06:49:44.000Z,39.43
2022-08-26T06:52:11.000Z,34.35
2022-08-26T06:54:38.000Z,34.35
2022-08-26T06:54:47.000Z,35.78
2022-08-26T06:57:03.000Z,37.65
2022-08-26T06:59:30.000Z,36.57
2022-08-26T07:01:55.000Z,35.63
2022-08-26T07:04:29.000Z,37.58
2022-08-26T07:06:45.000Z,33.9
2022-08-26T07:09:12.000Z,38.2
2022-08-26T07:11:37.000Z,35.25
2022-08-26T07:14:06.000Z,43.17
2022-08-26T07:16:30.000Z,39.15
2022-08-26T07:18:57.000Z,40.97
2022-08-26T07:21:22.000Z,40.97
2022-08-26T07:21:31.000Z,40.6
2022-08-26T07:23:48.000Z,36.7
2022-08-26T07:26:13.000Z,36.7
2022-08-26T07:26:21.000Z,42.65
2022-08-26T07:28:41.000Z,41
2022-08-26T07:31:16.000Z,43.25
2022-08-26T07:33:33.000Z,40.75
2022-08-26T07:35:59.000Z,39
2022-08-26T07:38:23.000Z,43.33
2022-08-26T07:40:54.000Z,43.33
2022-08-26T07:41:02.000Z,41.9
2022-08-26T07:43:19.000Z,47.08
2022-08-26T07:45:44.000Z,47.08
2022-08-26T07:45:52.000Z,41.75
2022-08-26T07:48:08.000Z,40.4
2022-08-26T08:05:14.000Z,40.4
2022-08-26T08:05:23.000Z,40.4
2022-08-26T08:07:38.000Z,40.4
2022-08-26T08:07:50.000Z,45.25
2022-08-26T08:08:09.000Z,48
2022-08-26T08:08:09.000Z,47.1
2022-08-26T08:08:23.000Z,42.98
2022-08-26T08:08:41.000Z,47.83
2022-08-26T08:08:41.000Z,47.83
2022-08-26T08:08:51.000Z,50.43
2022-08-26T08:08:59.000Z,49.67
2022-08-26T08:10:04.000Z,65.15
2022-08-26T08:12:29.000Z,52.75
2022-08-26T08:14:55.000Z,51.33
2022-08-26T08:17:23.000Z,56
2022-08-26T08:19:50.000Z,54.1
2022-08-26T08:22:18.000Z,51.83
2022-08-26T08:24:42.000Z,51.83
2022-08-26T08:24:51.000Z,52.03
2022-08-26T08:27:07.000Z,53.07
2022-08-26T08:29:34.000Z,55.9
2022-08-26T08:31:58.000Z,58.48
2022-08-26T08:34:24.000Z,60.63
2022-08-26T08:36:50.000Z,56.3
2022-08-26T08:39:18.000Z,61.95
2022-08-26T08:41:43.000Z,58.42
2022-08-26T08:44:07.000Z,59
2022-08-26T08:46:35.000Z,60.53
2022-08-26T08:49:00.000Z,57.27
2022-08-26T08:51:26.000Z,57.03
2022-08-26T08:53:54.000Z,59.87
2022-08-26T08:56:17.000Z,62.17
2022-08-26T08:58:43.000Z,62.58
2022-08-26T09:01:15.000Z,63.85
2022-08-26T09:03:36.000Z,59.8
2022-08-26T09:06:02.000Z,63.47
2022-08-26T09:08:27.000Z,58.83
2022-08-26T09:10:52.000Z,63.7
2022-08-26T09:13:18.000Z,66.25
2022-08-26T09:15:46.000Z,66.25
2022-08-26T09:15:55.000Z,68.83
2022-08-26T09:18:14.000Z,67.45
2022-08-26T09:20:38.000Z,67.05
2022-08-26T09:23:05.000Z,69.15
2022-08-26T09:25:30.000Z,68.1
2022-08-26T09:27:55.000Z,68.1
2022-08-26T09:28:05.000Z,64.1
2022-08-26T09:30:28.000Z,62.35
2022-08-26T09:32:47.000Z,59.67
2022-08-26T09:35:15.000Z,59.67
2022-08-26T09:35:24.000Z,67
2022-08-26T09:40:06.000Z,67.17
2022-08-26T09:42:31.000Z,63.02
2022-08-26T09:44:56.000Z,63.17
2022-08-26T09:47:23.000Z,61.83
2022-08-26T09:49:49.000Z,65.5
2022-08-26T09:52:19.000Z,60.78
2022-08-26T09:54:47.000Z,66.85
2022-08-26T09:57:21.000Z,68.8
2022-08-26T09:59:40.000Z,65.17
2022-08-26T10:02:11.000Z,62.7
2022-08-26T10:04:32.000Z,72.13
2022-08-26T10:06:59.000Z,63.13
2022-08-26T10:09:26.000Z,64
2022-08-26T10:11:51.000Z,62.47
2022-08-26T10:14:17.000Z,57.1
2022-08-26T10:16:43.000Z,66.22
2022-08-26T10:19:08.000Z,62.75
2022-08-26T10:21:34.000Z,60.58
2022-08-26T10:24:00.000Z,62.83
2022-08-26T10:26:28.000Z,66.33
2022-08-26T10:28:57.000Z,60.48
2022-08-26T10:31:26.000Z,62.7
2022-08-26T10:33:51.000Z,62.7
2022-08-26T10:36:16.000Z,62.7
2022-08-26T10:36:26.000Z,67.27
2022-08-26T10:38:42.000Z,67.27
2022-08-26T10:38:50.000Z,59.33
2022-08-26T10:41:11.000Z,59.33
2022-08-26T10:41:22.000Z,62.9
2022-08-26T10:41:31.000Z,64.12
2022-08-26T10:43:37.000Z,63.2
2022-08-26T10:46:03.000Z,63.37
2022-08-26T10:48:29.000Z,65.77
2022-08-26T10:50:55.000Z,65.77
2022-08-26T10:51:03.000Z,75.03
2022-08-26T10:53:25.000Z,78.78
2022-08-26T10:55:51.000Z,90.4
2022-08-26T10:58:25.000Z,88.12
2022-08-26T11:00:55.000Z,88.12
2022-08-26T11:03:13.000Z,88.12
2022-08-26T11:03:27.000Z,90.1
2022-08-26T11:03:33.000Z,85.6
2022-08-26T11:05:39.000Z,82.12
2022-08-26T11:10:38.000Z,88.05
2022-08-26T11:12:57.000Z,88.05
2022-08-26T11:13:06.000Z,81.85
2022-08-26T11:13:15.000Z,81.7
2022-08-26T11:17:57.000Z,82.37
2022-08-26T11:20:24.000Z,82.37
2022-08-26T11:20:34.000Z,69.42
2022-08-26T11:22:46.000Z,70.65
2022-08-26T11:25:15.000Z,67.8
2022-08-26T11:27:42.000Z,67.8
2022-08-26T11:27:49.000Z,67.1
2022-08-26T11:32:33.000Z,63
2022-08-26T11:34:59.000Z,54.93
2022-08-26T11:37:24.000Z,56.73
2022-08-26T11:39:56.000Z,54.93
2022-08-26T11:42:23.000Z,56.73
2022-08-26T11:44:50.000Z,56.73
2022-08-26T11:44:59.000Z,58.23
2022-08-26T11:47:18.000Z,58.23
2022-08-26T11:47:27.000Z,58.73
2022-08-26T11:49:45.000Z,58.73
2022-08-26T11:49:54.000Z,55.52
2022-08-26T11:52:10.000Z,57.6
2022-08-26T11:54:39.000Z,58.58
2022-08-26T11:57:05.000Z,54.08
2022-08-26T11:59:40.000Z,51.37
2022-08-26T12:02:03.000Z,51.37
2022-08-26T12:02:13.000Z,55.17
2022-08-26T12:04:24.000Z,53.73
2022-08-26T12:06:50.000Z,55.05
2022-08-26T12:09:19.000Z,56.47
2022-08-26T12:11:44.000Z,51
2022-08-26T12:14:11.000Z,50.95
2022-08-26T12:16:37.000Z,51
2022-08-26T12:19:06.000Z,47.8
2022-08-26T12:21:39.000Z,54.43
2022-08-26T12:24:04.000Z,48.55
2022-08-26T12:26:29.000Z,51.03
2022-08-26T12:28:54.000Z,54.4
2022-08-26T12:31:25.000Z,54.4
2022-08-26T12:31:34.000Z,54.25
2022-08-26T12:36:18.000Z,50.97
2022-08-26T12:38:43.000Z,58.2
2022-08-26T12:41:11.000Z,60.33
2022-08-26T12:43:36.000Z,59.93
2022-08-26T12:46:02.000Z,58.68
2022-08-26T12:48:29.000Z,58.68
2022-08-26T12:48:38.000Z,61.92
2022-08-26T12:50:55.000Z,59.98
2022-08-26T12:53:21.000Z,60.85
2022-08-26T12:55:49.000Z,61.13
2022-08-26T12:58:19.000Z,62.48
2022-08-26T13:00:52.000Z,73.1
2022-08-26T13:03:16.000Z,70.67
2022-08-26T13:05:46.000Z,68.83
2022-08-26T13:08:12.000Z,73.05
2022-08-26T13:10:38.000Z,67.47
2022-08-26T13:13:03.000Z,73.97
2022-08-26T13:15:31.000Z,66.28
2022-08-26T13:18:00.000Z,69.27
2022-08-26T13:20:30.000Z,67.35
2022-08-26T13:23:06.000Z,65.67
2022-08-26T13:25:38.000Z,71.2
2022-08-26T13:28:05.000Z,68.27
2022-08-26T13:30:41.000Z,67.75
2022-08-26T13:33:07.000Z,66.8
2022-08-26T13:35:34.000Z,66.8
2022-08-26T13:35:45.000Z,64.72
2022-08-26T13:37:58.000Z,69.5
2022-08-26T13:40:30.000Z,68
2022-08-26T13:42:56.000Z,68
2022-08-26T13:43:06.000Z,63.43
2022-08-26T13:45:22.000Z,63.43
2022-08-26T13:45:31.000Z,60.88
2022-08-26T13:47:49.000Z,63.7
2022-08-26T13:50:20.000Z,63.05
2022-08-26T13:52:47.000Z,64.55
2022-08-26T13:55:16.000Z,71.37
2022-08-26T13:57:41.000Z,64.53
2022-08-26T14:00:08.000Z,65.87
2022-08-26T14:02:32.000Z,60.03
2022-08-26T14:04:57.000Z,63.17
2022-08-26T14:07:28.000Z,55.92
2022-08-26T14:12:25.000Z,55.2
2022-08-26T14:14:54.000Z,50.75
2022-08-26T14:17:20.000Z,52.3
2022-08-26T14:19:50.000Z,52.3
2022-08-26T14:19:58.000Z,53.98
2022-08-26T14:22:20.000Z,50
2022-08-26T14:24:42.000Z,61
2022-08-26T14:27:09.000Z,50.83
2022-08-26T14:29:40.000Z,49.65
2022-08-26T14:32:04.000Z,52.98
2022-08-26T14:34:30.000Z,52.85
2022-08-26T14:36:55.000Z,53.58
2022-08-26T14:39:23.000Z,53.58
2022-08-26T14:39:31.000Z,56.98
2022-08-26T14:41:49.000Z,56.35
2022-08-26T14:44:15.000Z,56.35
2022-08-26T14:44:25.000Z,54.77
2022-08-26T14:46:42.000Z,56.9
2022-08-26T14:49:07.000Z,64.7
2022-08-26T14:51:35.000Z,58.85
2022-08-26T14:54:08.000Z,60.52
2022-08-26T14:56:53.000Z,58.33
2022-08-26T14:59:13.000Z,59.73
2022-08-26T15:01:38.000Z,61.73
2022-08-26T15:03:56.000Z,61.92
2022-08-26T15:06:29.000Z,53.68
2022-08-26T15:08:53.000Z,50.98
2022-08-26T15:11:19.000Z,51.45
2022-08-26T15:13:47.000Z,48.37
2022-08-26T15:16:23.000Z,44.7
2022-08-26T15:18:42.000Z,44.7
2022-08-26T15:18:49.000Z,48.63
2022-08-26T15:21:05.000Z,48.63
2022-08-26T15:21:14.000Z,48.58
2022-08-26T15:23:32.000Z,44.77
2022-08-26T15:25:58.000Z,44.27
2022-08-26T15:28:24.000Z,41.87
2022-08-26T15:30:52.000Z,40.65
2022-08-26T15:33:18.000Z,45.28
2022-08-26T15:35:42.000Z,41.98
2022-08-26T15:38:12.000Z,41.5
2022-08-26T15:40:36.000Z,47.08
2022-08-26T15:43:09.000Z,42.25
2022-08-26T15:45:42.000Z,42.25
2022-08-26T15:45:52.000Z,45.3
2022-08-26T15:47:53.000Z,38.6
2022-08-26T15:50:19.000Z,38.6
2022-08-26T15:50:28.000Z,40.67
2022-08-26T15:52:49.000Z,37.95
2022-08-26T15:55:14.000Z,36.27
2022-08-26T15:57:40.000Z,37.1
2022-08-26T16:00:13.000Z,32.1
2022-08-26T16:02:33.000Z,33.18
2022-08-26T16:04:58.000Z,36.6
2022-08-26T16:07:24.000Z,30.83
2022-08-26T16:09:50.000Z,32.93
2022-08-26T16:14:41.000Z,26.25
2022-08-26T16:17:23.000Z,26.25
2022-08-26T16:17:34.000Z,27.7
2022-08-26T16:19:34.000Z,28.83
2022-08-26T16:21:58.000Z,27.4
2022-08-26T16:24:24.000Z,27.05
2022-08-26T16:26:51.000Z,27.05
2022-08-26T16:27:02.000Z,26.48
2022-08-26T16:31:42.000Z,29.3
2022-08-26T16:34:08.000Z,24.82
2022-08-26T16:36:33.000Z,26.27
2022-08-26T16:38:59.000Z,24.27
2022-08-26T16:41:35.000Z,23.47
2022-08-26T16:43:51.000Z,26.75
2022-08-26T16:46:16.000Z,23.18
2022-08-26T16:48:42.000Z,23.52
2022-08-26T16:51:09.000Z,24.8
2022-08-26T16:53:34.000Z,22.57
2022-08-26T16:56:02.000Z,24.37
2022-08-26T16:58:26.000Z,26.55
2022-08-26T17:01:02.000Z,24.45
2022-08-26T17:03:46.000Z,24.45
2022-08-26T17:03:57.000Z,23.1
2022-08-26T17:23:43.000Z,23.97
2022-08-26T17:24:23.000Z,23.97
2022-08-26T17:24:33.000Z,22.27
2022-08-26T17:24:43.000Z,22.25
2022-08-26T17:24:53.000Z,19.77
2022-08-26T17:25:03.000Z,22.1
2022-08-26T17:25:11.000Z,21.8
2022-08-26T17:25:21.000Z,19.12
2022-08-26T17:25:30.000Z,21.95
2022-08-26T17:25:49.000Z,19.77
2022-08-26T17:27:37.000Z,22.1
2022-08-26T17:30:05.000Z,22.07
2022-08-26T17:32:29.000Z,19.8
2022-08-26T17:34:55.000Z,20.48
2022-08-26T17:37:21.000Z,21.9
2022-08-26T17:39:47.000Z,19.62
2022-08-26T17:42:13.000Z,23.02
2022-08-26T17:44:39.000Z,23.02
2022-08-26T17:47:05.000Z,23.02
2022-08-26T17:47:14.000Z,24.07
2022-08-26T17:47:23.000Z,23.23
2022-08-26T17:49:32.000Z,21.35
2022-08-26T17:51:57.000Z,21.42
2022-08-26T17:54:23.000Z,21.42
2022-08-26T17:54:33.000Z,22.47
2022-08-26T17:56:49.000Z,19.62
2022-08-26T17:59:15.000Z,23.4
2022-08-26T18:01:41.000Z,23.4
2022-08-26T18:01:48.000Z,21.15
2022-08-26T18:04:08.000Z,26.6
2022-08-26T18:06:34.000Z,22.83
2022-08-26T18:08:59.000Z,20.95
2022-08-26T18:11:25.000Z,19.77
2022-08-26T18:16:17.000Z,20.68
2022-08-26T18:18:43.000Z,17.82
2022-08-26T18:21:09.000Z,18.1
2022-08-26T18:23:35.000Z,19.47
2022-08-26T18:26:02.000Z,24.03
2022-08-26T18:28:27.000Z,24.03
2022-08-26T18:28:35.000Z,19.45
2022-08-26T18:30:54.000Z,22.7
2022-08-26T18:33:19.000Z,18.98
2022-08-26T18:35:45.000Z,20.8
2022-08-26T18:38:14.000Z,19.6
2022-08-26T18:40:38.000Z,19.77
2022-08-26T18:43:04.000Z,20.2
2022-08-26T18:45:28.000Z,16.8
2022-08-26T18:47:54.000Z,19.48
2022-08-26T18:50:24.000Z,17.9
2022-08-26T18:52:49.000Z,18.77
2022-08-26T18:55:14.000Z,17.02
2022-08-26T18:57:43.000Z,17.02
2022-08-26T18:57:52.000Z,19.42
2022-08-26T19:00:09.000Z,14.57
2022-08-26T19:02:31.000Z,15.17
2022-08-26T19:04:57.000Z,15.17
2022-08-26T19:05:06.000Z,15.45
2022-08-26T19:07:24.000Z,19.87
2022-08-26T19:09:48.000Z,19.87
2022-08-26T19:12:15.000Z,19.87
2022-08-26T19:12:25.000Z,16.1
2022-08-26T19:12:34.000Z,15.18
2022-08-26T19:14:41.000Z,17.73
2022-08-26T19:31:45.000Z,17.73
2022-08-26T19:31:55.000Z,17.73
2022-08-26T19:32:04.000Z,15.75
2022-08-26T19:32:13.000Z,18.33
2022-08-26T19:32:23.000Z,19.55
2022-08-26T19:32:31.000Z,17.4
2022-08-26T19:32:40.000Z,18.35
2022-08-26T19:32:48.000Z,17.2
2022-08-26T19:32:57.000Z,19.6
2022-08-26T19:34:09.000Z,18.37
2022-08-26T19:36:39.000Z,18.37
2022-08-26T19:36:50.000Z,20.6
2022-08-26T19:39:01.000Z,20.5
2022-08-26T19:41:26.000Z,18.6
2022-08-26T19:43:52.000Z,18.6
2022-08-26T19:46:29.000Z,18.6
2022-08-26T19:46:39.000Z,18.07
2022-08-26T19:46:48.000Z,17.95
2022-08-26T19:48:47.000Z,17.95
2022-08-26T19:48:57.000Z,16.97
2022-08-26T19:51:12.000Z,18.85
2022-08-26T19:53:37.000Z,19.05
2022-08-26T19:56:02.000Z,19.05
2022-08-26T19:56:10.000Z,21.37
2022-08-26T19:58:28.000Z,22.53
2022-08-26T20:01:08.000Z,21.45
2022-08-26T20:03:41.000Z,19.42
2022-08-26T20:05:48.000Z,21.2
2022-08-26T20:08:13.000Z,18.5
2022-08-26T20:10:37.000Z,18.5
2022-08-26T20:10:47.000Z,19.57
2022-08-26T20:13:06.000Z,20.43
2022-08-26T20:15:29.000Z,20.23
2022-08-26T20:17:56.000Z,21.47
2022-08-26T20:22:47.000Z,19.02
2022-08-26T20:25:15.000Z,20.6
2022-08-26T20:27:40.000Z,21.05
2022-08-26T20:30:08.000Z,20.07
2022-08-26T20:32:30.000Z,24.7
2022-08-26T20:34:58.000Z,24.7
2022-08-26T20:35:08.000Z,22.8
2022-08-26T20:37:23.000Z,22.22
2022-08-26T20:39:51.000Z,19.5
2022-08-26T20:42:14.000Z,21.93
2022-08-26T20:44:41.000Z,21.93
2022-08-26T20:47:07.000Z,21.93
2022-08-26T20:47:16.000Z,18.6
2022-08-26T20:47:24.000Z,18.3
2022-08-26T20:49:36.000Z,18.8
2022-08-26T20:52:04.000Z,18.8
2022-08-26T20:52:16.000Z,22.1
2022-08-26T20:54:25.000Z,22.03
2022-08-26T20:56:54.000Z,22.03
2022-08-26T20:57:02.000Z,20.55
2022-08-26T20:59:17.000Z,22.62
2022-08-26T21:01:42.000Z,24.72
2022-08-26T21:04:07.000Z,25.73
2022-08-26T21:06:48.000Z,24.6
2022-08-26T21:09:03.000Z,24.6
2022-08-26T21:09:15.000Z,21.45
2022-08-26T21:11:26.000Z,23.07
2022-08-26T21:13:55.000Z,21.2
2022-08-26T21:16:16.000Z,21.2
2022-08-26T21:16:24.000Z,21.67
2022-08-26T21:18:43.000Z,22.9
2022-08-26T21:21:10.000Z,20.52
2022-08-26T21:23:35.000Z,20.35
2022-08-26T21:28:30.000Z,20.55
2022-08-26T21:31:00.000Z,17.3
2022-08-26T21:33:17.000Z,17.73
2022-08-26T21:35:43.000Z,15.93
2022-08-26T21:38:10.000Z,15.93
2022-08-26T21:38:19.000Z,18.1
2022-08-26T21:40:36.000Z,18.1
2022-08-26T21:40:45.000Z,17.93
2022-08-26T21:43:01.000Z,16.6
2022-08-26T21:45:28.000Z,16.77
2022-08-26T21:47:54.000Z,18.7
2022-08-26T21:50:24.000Z,18.75
2022-08-26T21:52:47.000Z,15.93
2022-08-26T21:55:11.000Z,18.87
2022-08-26T21:57:37.000Z,17.42
2022-08-26T22:00:07.000Z,15.58
2022-08-26T22:02:50.000Z,17.55
2022-08-26T22:04:55.000Z,19.27
2022-08-26T22:07:21.000Z,16.95
2022-08-26T22:09:55.000Z,17.2
2022-08-26T22:12:13.000Z,14.5
2022-08-26T22:14:38.000Z,20.17
2022-08-26T22:17:05.000Z,15
2022-08-26T22:19:33.000Z,16.95
2022-08-26T22:21:57.000Z,16.95
2022-08-26T22:22:05.000Z,19.47
2022-08-26T22:24:22.000Z,16.07
2022-08-26T22:26:48.000Z,15.43
2022-08-26T22:29:13.000Z,18.35
2022-08-26T22:31:43.000Z,17.7
2022-08-26T22:34:05.000Z,15.93
2022-08-26T22:36:32.000Z,15.63
2022-08-26T22:38:58.000Z,15.63
2022-08-26T22:39:05.000Z,14.95
2022-08-26T22:41:27.000Z,16.8
2022-08-26T22:43:51.000Z,15.88
2022-08-26T22:46:16.000Z,16.3
2022-08-26T22:48:42.000Z,20.2
2022-08-26T22:51:09.000Z,20.2
2022-08-26T22:51:17.000Z,15.08
2022-08-26T22:53:39.000Z,17
2022-08-26T22:55:59.000Z,16.8
2022-08-26T22:58:25.000Z,15.13
2022-08-26T23:00:50.000Z,16.9
2022-08-26T23:03:17.000Z,16.45
2022-08-26T23:08:08.000Z,16.62
2022-08-26T23:10:38.000Z,17.03
2022-08-26T23:13:01.000Z,18.98
2022-08-26T23:15:28.000Z,19.37
2022-08-26T23:17:52.000Z,17.77
2022-08-26T23:20:23.000Z,17.77
2022-08-26T23:20:29.000Z,21.63
2022-08-26T23:22:45.000Z,23.17
2022-08-26T23:25:12.000Z,21.25
2022-08-26T23:27:36.000Z,22.1
2022-08-26T23:30:03.000Z,20.93
2022-08-26T23:32:28.000Z,22.53
2022-08-26T23:34:54.000Z,22.37
2022-08-26T23:37:22.000Z,23.35
2022-08-26T23:39:49.000Z,23.5
2022-08-26T23:42:17.000Z,26.2
2022-08-26T23:44:38.000Z,23.85
2022-08-26T23:47:05.000Z,27.17
2022-08-26T23:49:30.000Z,22
2022-08-26T23:51:56.000Z,22.05
2022-08-26T23:54:24.000Z,22.05
2022-08-26T23:56:49.000Z,19.45
2022-08-26T23:59:15.000Z,26.75
